sensor_id;sensor_type;location;lat;lon;timestamp;P1;durP1;ratioP1;P2;durP2;ratioP2
62941;SDS011;49042;47.318;19.874;2022-11-02T00:02:10;22.83;;;13.40;;
62941;SDS011;49042;47.318;19.874;2022-11-02T00:05:12;30.00;;;14.20;;
62941;SDS011;49042;47.318;19.874;2022-11-02T00:08:14;23.92;;;13.82;;
62941;SDS011;49042;47.318;19.874;2022-11-02T00:11:16;25.17;;;13.90;;
62941;SDS011;49042;47.318;19.874;2022-11-02T00:14:17;26.20;;;13.93;;
62941;SDS011;49042;47.318;19.874;2022-11-02T00:17:19;24.08;;;13.60;;
62941;SDS011;49042;47.318;19.874;2022-11-02T00:20:21;24.15;;;13.25;;
62941;SDS011;49042;47.318;19.874;2022-11-02T00:23:23;25.20;;;13.30;;
62941;SDS011;49042;47.318;19.874;2022-11-02T00:26:25;28.23;;;13.68;;
62941;SDS011;49042;47.318;19.874;2022-11-02T00:29:28;22.33;;;13.55;;
62941;SDS011;49042;47.318;19.874;2022-11-02T00:32:34;24.20;;;13.80;;
62941;SDS011;49042;47.318;19.874;2022-11-02T00:35:36;24.40;;;13.82;;
62941;SDS011;49042;47.318;19.874;2022-11-02T00:38:38;24.58;;;12.90;;
62941;SDS011;49042;47.318;19.874;2022-11-02T00:41:40;27.65;;;13.38;;
62941;SDS011;49042;47.318;19.874;2022-11-02T00:44:42;23.75;;;12.85;;
62941;SDS011;49042;47.318;19.874;2022-11-02T00:47:43;23.87;;;13.40;;
62941;SDS011;49042;47.318;19.874;2022-11-02T00:50:45;26.30;;;14.35;;
62941;SDS011;49042;47.318;19.874;2022-11-02T00:53:47;24.58;;;13.05;;
62941;SDS011;49042;47.318;19.874;2022-11-02T00:56:48;23.75;;;13.07;;
62941;SDS011;49042;47.318;19.874;2022-11-02T00:59:50;25.48;;;13.62;;
62941;SDS011;49042;47.318;19.874;2022-11-02T01:02:51;24.58;;;13.93;;
62941;SDS011;49042;47.318;19.874;2022-11-02T01:05:53;25.62;;;14.50;;
62941;SDS011;49042;47.318;19.874;2022-11-02T01:08:55;26.25;;;13.65;;
62941;SDS011;49042;47.318;19.874;2022-11-02T01:11:56;22.05;;;12.88;;
62941;SDS011;49042;47.318;19.874;2022-11-02T01:14:58;23.85;;;12.65;;
62941;SDS011;49042;47.318;19.874;2022-11-02T01:17:59;27.27;;;13.20;;
62941;SDS011;49042;47.318;19.874;2022-11-02T01:21:01;18.27;;;10.80;;
62941;SDS011;49042;47.318;19.874;2022-11-02T01:24:03;19.90;;;10.05;;
62941;SDS011;49042;47.318;19.874;2022-11-02T01:27:05;19.67;;;10.15;;
62941;SDS011;49042;47.318;19.874;2022-11-02T01:30:07;20.12;;;11.12;;
62941;SDS011;49042;47.318;19.874;2022-11-02T01:33:09;16.55;;;10.07;;
62941;SDS011;49042;47.318;19.874;2022-11-02T01:36:11;19.27;;;10.60;;
62941;SDS011;49042;47.318;19.874;2022-11-02T01:39:14;16.85;;;9.82;;
62941;SDS011;49042;47.318;19.874;2022-11-02T01:42:23;18.27;;;10.65;;
62941;SDS011;49042;47.318;19.874;2022-11-02T01:45:25;21.58;;;10.27;;
62941;SDS011;49042;47.318;19.874;2022-11-02T01:48:35;16.52;;;10.20;;
62941;SDS011;49042;47.318;19.874;2022-11-02T01:51:44;19.20;;;10.23;;
62941;SDS011;49042;47.318;19.874;2022-11-02T01:54:51;16.58;;;9.48;;
62941;SDS011;49042;47.318;19.874;2022-11-02T01:58:00;18.70;;;9.60;;
62941;SDS011;49042;47.318;19.874;2022-11-02T02:01:05;21.35;;;9.35;;
62941;SDS011;49042;47.318;19.874;2022-11-02T02:04:07;21.77;;;9.38;;
62941;SDS011;49042;47.318;19.874;2022-11-02T02:07:09;19.83;;;10.60;;
62941;SDS011;49042;47.318;19.874;2022-11-02T02:10:13;17.90;;;9.70;;
62941;SDS011;49042;47.318;19.874;2022-11-02T02:13:15;16.73;;;9.95;;
62941;SDS011;49042;47.318;19.874;2022-11-02T02:16:20;22.05;;;10.50;;
62941;SDS011;49042;47.318;19.874;2022-11-02T02:19:43;15.00;;;8.57;;
62941;SDS011;49042;47.318;19.874;2022-11-02T02:29:51;19.27;;;11.23;;
62941;SDS011;49042;47.318;19.874;2022-11-02T02:33:13;24.80;;;11.12;;
62941;SDS011;49042;47.318;19.874;2022-11-02T02:36:44;21.87;;;10.80;;
62941;SDS011;49042;47.318;19.874;2022-11-02T02:40:12;19.60;;;11.73;;
62941;SDS011;49042;47.318;19.874;2022-11-02T02:43:30;18.67;;;10.43;;
62941;SDS011;49042;47.318;19.874;2022-11-02T02:49:58;17.85;;;10.75;;
62941;SDS011;49042;47.318;19.874;2022-11-02T02:53:07;19.60;;;11.25;;
62941;SDS011;49042;47.318;19.874;2022-11-02T02:56:10;20.30;;;10.55;;
62941;SDS011;49042;47.318;19.874;2022-11-02T03:02:32;20.98;;;12.02;;
62941;SDS011;49042;47.318;19.874;2022-11-02T03:05:36;21.40;;;11.32;;
62941;SDS011;49042;47.318;19.874;2022-11-02T03:08:39;20.62;;;11.70;;
62941;SDS011;49042;47.318;19.874;2022-11-02T03:12:07;20.35;;;11.80;;
62941;SDS011;49042;47.318;19.874;2022-11-02T03:15:25;19.17;;;11.50;;
62941;SDS011;49042;47.318;19.874;2022-11-02T03:18:42;23.90;;;12.40;;
62941;SDS011;49042;47.318;19.874;2022-11-02T03:21:47;22.10;;;11.73;;
62941;SDS011;49042;47.318;19.874;2022-11-02T03:25:00;19.87;;;10.70;;
62941;SDS011;49042;47.318;19.874;2022-11-02T03:28:34;20.42;;;11.12;;
62941;SDS011;49042;47.318;19.874;2022-11-02T03:34:47;20.45;;;11.60;;
62941;SDS011;49042;47.318;19.874;2022-11-02T03:37:57;22.83;;;12.00;;
62941;SDS011;49042;47.318;19.874;2022-11-02T03:41:03;28.05;;;12.48;;
62941;SDS011;49042;47.318;19.874;2022-11-02T03:44:07;27.15;;;13.23;;
62941;SDS011;49042;47.318;19.874;2022-11-02T03:47:13;23.17;;;12.95;;
62941;SDS011;49042;47.318;19.874;2022-11-02T03:50:19;24.45;;;13.88;;
62941;SDS011;49042;47.318;19.874;2022-11-02T03:57:02;27.60;;;13.02;;
62941;SDS011;49042;47.318;19.874;2022-11-02T04:00:15;27.05;;;14.10;;
62941;SDS011;49042;47.318;19.874;2022-11-02T04:03:21;28.73;;;14.63;;
62941;SDS011;49042;47.318;19.874;2022-11-02T04:06:24;29.90;;;15.60;;
62941;SDS011;49042;47.318;19.874;2022-11-02T04:09:26;33.17;;;16.25;;
62941;SDS011;49042;47.318;19.874;2022-11-02T04:12:28;26.87;;;15.02;;
62941;SDS011;49042;47.318;19.874;2022-11-02T04:15:48;26.00;;;14.95;;
62941;SDS011;49042;47.318;19.874;2022-11-02T04:18:51;26.73;;;14.18;;
62941;SDS011;49042;47.318;19.874;2022-11-02T04:22:11;28.80;;;14.90;;
62941;SDS011;49042;47.318;19.874;2022-11-02T04:25:32;28.55;;;13.73;;
62941;SDS011;49042;47.318;19.874;2022-11-02T04:28:33;32.60;;;14.45;;
62941;SDS011;49042;47.318;19.874;2022-11-02T04:31:35;25.30;;;13.30;;
62941;SDS011;49042;47.318;19.874;2022-11-02T04:34:36;23.50;;;12.88;;
62941;SDS011;49042;47.318;19.874;2022-11-02T04:37:38;21.55;;;12.05;;
62941;SDS011;49042;47.318;19.874;2022-11-02T04:41:00;22.98;;;12.02;;
62941;SDS011;49042;47.318;19.874;2022-11-02T04:44:20;20.95;;;11.45;;
62941;SDS011;49042;47.318;19.874;2022-11-02T04:47:28;25.33;;;12.82;;
62941;SDS011;49042;47.318;19.874;2022-11-02T04:50:29;30.70;;;13.50;;
62941;SDS011;49042;47.318;19.874;2022-11-02T04:53:31;25.25;;;12.85;;
62941;SDS011;49042;47.318;19.874;2022-11-02T04:56:33;23.08;;;12.80;;
62941;SDS011;49042;47.318;19.874;2022-11-02T04:59:35;23.95;;;11.93;;
62941;SDS011;49042;47.318;19.874;2022-11-02T05:02:36;25.33;;;12.73;;
62941;SDS011;49042;47.318;19.874;2022-11-02T05:05:38;25.48;;;12.15;;
62941;SDS011;49042;47.318;19.874;2022-11-02T05:08:40;20.17;;;11.48;;
62941;SDS011;49042;47.318;19.874;2022-11-02T05:11:41;23.38;;;11.65;;
62941;SDS011;49042;47.318;19.874;2022-11-02T05:14:43;23.85;;;12.60;;
62941;SDS011;49042;47.318;19.874;2022-11-02T05:17:46;23.65;;;11.77;;
62941;SDS011;49042;47.318;19.874;2022-11-02T05:20:52;23.20;;;11.90;;
62941;SDS011;49042;47.318;19.874;2022-11-02T05:23:54;24.60;;;13.32;;
62941;SDS011;49042;47.318;19.874;2022-11-02T05:26:56;23.00;;;13.13;;
62941;SDS011;49042;47.318;19.874;2022-11-02T05:29:58;18.95;;;11.23;;
62941;SDS011;49042;47.318;19.874;2022-11-02T05:33:00;22.75;;;10.82;;
62941;SDS011;49042;47.318;19.874;2022-11-02T05:36:03;23.20;;;11.43;;
62941;SDS011;49042;47.318;19.874;2022-11-02T05:39:05;20.23;;;11.93;;
62941;SDS011;49042;47.318;19.874;2022-11-02T05:42:07;22.90;;;12.25;;
62941;SDS011;49042;47.318;19.874;2022-11-02T05:45:08;25.83;;;12.25;;
62941;SDS011;49042;47.318;19.874;2022-11-02T05:48:10;20.35;;;11.27;;
62941;SDS011;49042;47.318;19.874;2022-11-02T05:51:12;23.23;;;12.02;;
62941;SDS011;49042;47.318;19.874;2022-11-02T05:54:13;23.08;;;12.05;;
62941;SDS011;49042;47.318;19.874;2022-11-02T05:57:15;23.25;;;11.40;;
62941;SDS011;49042;47.318;19.874;2022-11-02T06:00:17;23.90;;;13.10;;
62941;SDS011;49042;47.318;19.874;2022-11-02T06:03:19;28.23;;;15.43;;
62941;SDS011;49042;47.318;19.874;2022-11-02T06:06:21;26.45;;;14.13;;
62941;SDS011;49042;47.318;19.874;2022-11-02T06:09:23;26.52;;;14.32;;
62941;SDS011;49042;47.318;19.874;2022-11-02T06:12:24;40.72;;;25.50;;
62941;SDS011;49042;47.318;19.874;2022-11-02T06:15:27;52.38;;;35.08;;
62941;SDS011;49042;47.318;19.874;2022-11-02T06:18:30;44.53;;;23.40;;
62941;SDS011;49042;47.318;19.874;2022-11-02T06:21:32;42.33;;;22.35;;
62941;SDS011;49042;47.318;19.874;2022-11-02T06:24:33;42.35;;;24.02;;
62941;SDS011;49042;47.318;19.874;2022-11-02T06:27:35;35.63;;;18.73;;
62941;SDS011;49042;47.318;19.874;2022-11-02T06:30:41;38.63;;;20.25;;
62941;SDS011;49042;47.318;19.874;2022-11-02T06:33:43;40.97;;;21.50;;
62941;SDS011;49042;47.318;19.874;2022-11-02T06:36:45;33.95;;;18.75;;
62941;SDS011;49042;47.318;19.874;2022-11-02T06:39:47;48.28;;;22.25;;
62941;SDS011;49042;47.318;19.874;2022-11-02T06:42:53;36.58;;;20.52;;
62941;SDS011;49042;47.318;19.874;2022-11-02T06:46:16;35.25;;;16.65;;
62941;SDS011;49042;47.318;19.874;2022-11-02T06:49:18;29.33;;;15.57;;
62941;SDS011;49042;47.318;19.874;2022-11-02T06:52:19;37.78;;;22.55;;
62941;SDS011;49042;47.318;19.874;2022-11-02T06:55:21;38.00;;;19.95;;
62941;SDS011;49042;47.318;19.874;2022-11-02T06:58:22;34.85;;;18.48;;
62941;SDS011;49042;47.318;19.874;2022-11-02T07:01:25;36.10;;;17.20;;
62941;SDS011;49042;47.318;19.874;2022-11-02T07:04:26;30.33;;;16.02;;
62941;SDS011;49042;47.318;19.874;2022-11-02T07:07:28;34.03;;;15.57;;
62941;SDS011;49042;47.318;19.874;2022-11-02T07:10:30;32.38;;;15.68;;
62941;SDS011;49042;47.318;19.874;2022-11-02T07:13:32;33.72;;;15.98;;
62941;SDS011;49042;47.318;19.874;2022-11-02T07:16:33;31.70;;;16.52;;
62941;SDS011;49042;47.318;19.874;2022-11-02T07:19:35;30.65;;;15.60;;
62941;SDS011;49042;47.318;19.874;2022-11-02T07:22:37;39.95;;;17.55;;
62941;SDS011;49042;47.318;19.874;2022-11-02T07:25:38;35.22;;;17.35;;
62941;SDS011;49042;47.318;19.874;2022-11-02T07:28:40;35.85;;;17.15;;
62941;SDS011;49042;47.318;19.874;2022-11-02T07:31:42;29.12;;;15.80;;
62941;SDS011;49042;47.318;19.874;2022-11-02T07:34:43;30.65;;;16.20;;
62941;SDS011;49042;47.318;19.874;2022-11-02T07:37:53;36.67;;;15.88;;
62941;SDS011;49042;47.318;19.874;2022-11-02T07:40:55;32.88;;;16.52;;
62941;SDS011;49042;47.318;19.874;2022-11-02T07:43:57;32.05;;;15.35;;
62941;SDS011;49042;47.318;19.874;2022-11-02T07:46:59;30.35;;;16.60;;
62941;SDS011;49042;47.318;19.874;2022-11-02T07:50:01;28.83;;;15.98;;
62941;SDS011;49042;47.318;19.874;2022-11-02T07:53:03;29.52;;;15.82;;
62941;SDS011;49042;47.318;19.874;2022-11-02T07:56:05;31.27;;;16.75;;
62941;SDS011;49042;47.318;19.874;2022-11-02T07:59:09;39.53;;;17.80;;
62941;SDS011;49042;47.318;19.874;2022-11-02T08:02:11;33.83;;;16.45;;
62941;SDS011;49042;47.318;19.874;2022-11-02T08:05:13;34.08;;;16.10;;
62941;SDS011;49042;47.318;19.874;2022-11-02T08:08:16;67.05;;;33.85;;
62941;SDS011;49042;47.318;19.874;2022-11-02T08:11:21;29.60;;;15.00;;
62941;SDS011;49042;47.318;19.874;2022-11-02T08:14:22;28.90;;;15.05;;
62941;SDS011;49042;47.318;19.874;2022-11-02T08:17:24;35.33;;;14.95;;
62941;SDS011;49042;47.318;19.874;2022-11-02T08:20:25;27.27;;;14.87;;
62941;SDS011;49042;47.318;19.874;2022-11-02T08:23:27;27.35;;;14.48;;
62941;SDS011;49042;47.318;19.874;2022-11-02T08:26:29;27.30;;;14.07;;
62941;SDS011;49042;47.318;19.874;2022-11-02T08:29:30;27.30;;;15.10;;
62941;SDS011;49042;47.318;19.874;2022-11-02T08:32:32;28.87;;;13.80;;
62941;SDS011;49042;47.318;19.874;2022-11-02T08:35:33;26.10;;;14.05;;
62941;SDS011;49042;47.318;19.874;2022-11-02T08:38:37;25.98;;;14.50;;
62941;SDS011;49042;47.318;19.874;2022-11-02T08:41:40;31.83;;;13.95;;
62941;SDS011;49042;47.318;19.874;2022-11-02T08:44:41;33.90;;;17.50;;
62941;SDS011;49042;47.318;19.874;2022-11-02T08:47:43;31.35;;;17.95;;
62941;SDS011;49042;47.318;19.874;2022-11-02T08:50:46;41.30;;;19.85;;
62941;SDS011;49042;47.318;19.874;2022-11-02T08:53:49;38.22;;;19.50;;
62941;SDS011;49042;47.318;19.874;2022-11-02T08:56:52;27.60;;;16.27;;
62941;SDS011;49042;47.318;19.874;2022-11-02T08:59:53;31.40;;;16.30;;
62941;SDS011;49042;47.318;19.874;2022-11-02T09:02:59;29.98;;;14.63;;
62941;SDS011;49042;47.318;19.874;2022-11-02T09:06:03;30.20;;;15.77;;
62941;SDS011;49042;47.318;19.874;2022-11-02T09:09:04;25.62;;;14.25;;
62941;SDS011;49042;47.318;19.874;2022-11-02T09:12:06;27.35;;;14.25;;
62941;SDS011;49042;47.318;19.874;2022-11-02T09:15:08;24.83;;;13.75;;
62941;SDS011;49042;47.318;19.874;2022-11-02T09:18:10;25.37;;;13.57;;
62941;SDS011;49042;47.318;19.874;2022-11-02T09:21:11;26.45;;;14.30;;
62941;SDS011;49042;47.318;19.874;2022-11-02T09:24:13;25.73;;;14.82;;
62941;SDS011;49042;47.318;19.874;2022-11-02T09:27:14;29.80;;;14.48;;
62941;SDS011;49042;47.318;19.874;2022-11-02T09:30:16;27.70;;;14.07;;
62941;SDS011;49042;47.318;19.874;2022-11-02T09:33:18;25.52;;;13.43;;
62941;SDS011;49042;47.318;19.874;2022-11-02T09:36:20;22.62;;;13.10;;
62941;SDS011;49042;47.318;19.874;2022-11-02T09:39:21;21.95;;;12.73;;
62941;SDS011;49042;47.318;19.874;2022-11-02T09:42:29;27.52;;;12.85;;
62941;SDS011;49042;47.318;19.874;2022-11-02T09:49:03;26.48;;;13.02;;
62941;SDS011;49042;47.318;19.874;2022-11-02T09:52:12;23.77;;;11.85;;
62941;SDS011;49042;47.318;19.874;2022-11-02T09:55:31;41.25;;;18.27;;
62941;SDS011;49042;47.318;19.874;2022-11-02T09:58:37;30.62;;;16.00;;
62941;SDS011;49042;47.318;19.874;2022-11-02T10:01:59;30.25;;;13.60;;
62941;SDS011;49042;47.318;19.874;2022-11-02T10:14:58;19.75;;;11.82;;
62941;SDS011;49042;47.318;19.874;2022-11-02T10:18:12;23.87;;;11.50;;
62941;SDS011;49042;47.318;19.874;2022-11-02T10:21:26;26.67;;;12.37;;
62941;SDS011;49042;47.318;19.874;2022-11-02T10:24:46;24.35;;;11.90;;
62941;SDS011;49042;47.318;19.874;2022-11-02T10:27:49;20.60;;;11.30;;
62941;SDS011;49042;47.318;19.874;2022-11-02T10:31:01;23.35;;;11.90;;
62941;SDS011;49042;47.318;19.874;2022-11-02T10:34:10;18.45;;;11.55;;
62941;SDS011;49042;47.318;19.874;2022-11-02T10:41:23;26.55;;;13.25;;
62941;SDS011;49042;47.318;19.874;2022-11-02T10:44:13;28.23;;;12.80;;
62941;SDS011;49042;47.318;19.874;2022-11-02T10:47:42;30.10;;;13.23;;
62941;SDS011;49042;47.318;19.874;2022-11-02T10:54:13;23.77;;;12.82;;
62941;SDS011;49042;47.318;19.874;2022-11-02T10:57:24;26.37;;;13.30;;
62941;SDS011;49042;47.318;19.874;2022-11-02T11:00:31;26.50;;;13.20;;
62941;SDS011;49042;47.318;19.874;2022-11-02T11:03:51;22.62;;;12.75;;
62941;SDS011;49042;47.318;19.874;2022-11-02T11:06:54;23.10;;;11.88;;
62941;SDS011;49042;47.318;19.874;2022-11-02T11:09:58;20.70;;;12.07;;
62941;SDS011;49042;47.318;19.874;2022-11-02T11:13:00;21.05;;;12.20;;
62941;SDS011;49042;47.318;19.874;2022-11-02T11:16:04;22.27;;;11.73;;
62941;SDS011;49042;47.318;19.874;2022-11-02T11:19:15;22.98;;;12.02;;
62941;SDS011;49042;47.318;19.874;2022-11-02T11:22:40;20.00;;;12.15;;
62941;SDS011;49042;47.318;19.874;2022-11-02T11:25:42;23.65;;;12.30;;
62941;SDS011;49042;47.318;19.874;2022-11-02T11:28:55;21.08;;;11.85;;
62941;SDS011;49042;47.318;19.874;2022-11-02T11:31:58;21.62;;;11.65;;
62941;SDS011;49042;47.318;19.874;2022-11-02T11:35:02;20.67;;;11.35;;
62941;SDS011;49042;47.318;19.874;2022-11-02T11:38:08;21.27;;;11.07;;
62941;SDS011;49042;47.318;19.874;2022-11-02T11:41:15;17.50;;;10.40;;
62941;SDS011;49042;47.318;19.874;2022-11-02T11:44:18;18.08;;;10.52;;
62941;SDS011;49042;47.318;19.874;2022-11-02T11:47:25;23.08;;;11.45;;
62941;SDS011;49042;47.318;19.874;2022-11-02T11:50:28;39.55;;;19.70;;
62941;SDS011;49042;47.318;19.874;2022-11-02T11:53:31;37.15;;;18.23;;
62941;SDS011;49042;47.318;19.874;2022-11-02T11:56:32;20.77;;;10.85;;
62941;SDS011;49042;47.318;19.874;2022-11-02T12:02:42;18.08;;;9.52;;
62941;SDS011;49042;47.318;19.874;2022-11-02T12:09:02;17.27;;;10.38;;
62941;SDS011;49042;47.318;19.874;2022-11-02T12:22:49;18.73;;;8.82;;
62941;SDS011;49042;47.318;19.874;2022-11-02T12:26:20;17.70;;;8.48;;
62941;SDS011;49042;47.318;19.874;2022-11-02T12:33:32;14.68;;;8.63;;
62941;SDS011;49042;47.318;19.874;2022-11-02T12:37:03;17.20;;;10.27;;
62941;SDS011;49042;47.318;19.874;2022-11-02T12:40:32;19.98;;;10.80;;
62941;SDS011;49042;47.318;19.874;2022-11-02T12:43:52;21.25;;;11.80;;
62941;SDS011;49042;47.318;19.874;2022-11-02T12:54:05;18.90;;;12.65;;
62941;SDS011;49042;47.318;19.874;2022-11-02T12:56:50;22.80;;;13.02;;
62941;SDS011;49042;47.318;19.874;2022-11-02T12:59:55;19.02;;;11.80;;
62941;SDS011;49042;47.318;19.874;2022-11-02T13:06:25;22.48;;;11.43;;
62941;SDS011;49042;47.318;19.874;2022-11-02T13:09:44;22.80;;;11.65;;
62941;SDS011;49042;47.318;19.874;2022-11-02T13:13:09;23.42;;;11.65;;
62941;SDS011;49042;47.318;19.874;2022-11-02T13:16:16;22.37;;;11.98;;
62941;SDS011;49042;47.318;19.874;2022-11-02T13:19:22;21.37;;;11.60;;
62941;SDS011;49042;47.318;19.874;2022-11-02T13:22:37;18.50;;;11.93;;
62941;SDS011;49042;47.318;19.874;2022-11-02T13:25:43;21.87;;;11.38;;
62941;SDS011;49042;47.318;19.874;2022-11-02T13:28:56;21.87;;;13.05;;
62941;SDS011;49042;47.318;19.874;2022-11-02T13:35:19;21.50;;;12.00;;
62941;SDS011;49042;47.318;19.874;2022-11-02T13:38:30;18.12;;;11.75;;
62941;SDS011;49042;47.318;19.874;2022-11-02T13:48:59;21.37;;;11.77;;
62941;SDS011;49042;47.318;19.874;2022-11-02T13:52:09;22.70;;;11.05;;
62941;SDS011;49042;47.318;19.874;2022-11-02T13:55:19;23.98;;;11.35;;
62941;SDS011;49042;47.318;19.874;2022-11-02T14:01:24;18.92;;;11.10;;
62941;SDS011;49042;47.318;19.874;2022-11-02T14:04:28;20.17;;;10.82;;
62941;SDS011;49042;47.318;19.874;2022-11-02T14:07:39;23.70;;;11.18;;
62941;SDS011;49042;47.318;19.874;2022-11-02T14:10:41;20.00;;;11.48;;
62941;SDS011;49042;47.318;19.874;2022-11-02T14:16:58;25.33;;;13.05;;
62941;SDS011;49042;47.318;19.874;2022-11-02T14:20:29;24.87;;;13.73;;
62941;SDS011;49042;47.318;19.874;2022-11-02T14:23:38;21.65;;;13.32;;
62941;SDS011;49042;47.318;19.874;2022-11-02T14:26:53;22.20;;;12.82;;
62941;SDS011;49042;47.318;19.874;2022-11-02T14:29:57;30.35;;;14.40;;
62941;SDS011;49042;47.318;19.874;2022-11-02T14:33:04;24.98;;;13.32;;
62941;SDS011;49042;47.318;19.874;2022-11-02T14:39:22;20.73;;;13.25;;
62941;SDS011;49042;47.318;19.874;2022-11-02T14:49:47;24.75;;;13.02;;
62941;SDS011;49042;47.318;19.874;2022-11-02T14:53:00;34.38;;;14.23;;
62941;SDS011;49042;47.318;19.874;2022-11-02T14:56:05;33.13;;;15.20;;
62941;SDS011;49042;47.318;19.874;2022-11-02T14:59:11;29.60;;;14.32;;
62941;SDS011;49042;47.318;19.874;2022-11-02T15:02:23;24.70;;;14.15;;
62941;SDS011;49042;47.318;19.874;2022-11-02T15:05:37;30.67;;;13.90;;
62941;SDS011;49042;47.318;19.874;2022-11-02T15:11:49;25.60;;;14.87;;
62941;SDS011;49042;47.318;19.874;2022-11-02T15:14:55;29.12;;;13.95;;
62941;SDS011;49042;47.318;19.874;2022-11-02T15:18:20;36.70;;;15.23;;
62941;SDS011;49042;47.318;19.874;2022-11-02T15:21:31;26.77;;;15.68;;
62941;SDS011;49042;47.318;19.874;2022-11-02T15:24:32;23.20;;;15.60;;
62941;SDS011;49042;47.318;19.874;2022-11-02T15:27:35;30.83;;;16.15;;
62941;SDS011;49042;47.318;19.874;2022-11-02T15:30:43;34.92;;;16.58;;
62941;SDS011;49042;47.318;19.874;2022-11-02T15:33:48;28.95;;;15.90;;
62941;SDS011;49042;47.318;19.874;2022-11-02T15:36:53;30.85;;;18.05;;
62941;SDS011;49042;47.318;19.874;2022-11-02T15:39:57;27.37;;;16.80;;
62941;SDS011;49042;47.318;19.874;2022-11-02T15:43:10;29.05;;;16.95;;
62941;SDS011;49042;47.318;19.874;2022-11-02T15:53:09;30.90;;;16.77;;
62941;SDS011;49042;47.318;19.874;2022-11-02T16:03:05;31.98;;;19.58;;
62941;SDS011;49042;47.318;19.874;2022-11-02T16:06:09;37.83;;;19.92;;
62941;SDS011;49042;47.318;19.874;2022-11-02T16:12:33;37.67;;;20.35;;
62941;SDS011;49042;47.318;19.874;2022-11-02T16:15:35;35.00;;;20.33;;
62941;SDS011;49042;47.318;19.874;2022-11-02T16:18:39;34.33;;;19.42;;
62941;SDS011;49042;47.318;19.874;2022-11-02T16:21:41;31.95;;;18.55;;
62941;SDS011;49042;47.318;19.874;2022-11-02T16:24:43;35.95;;;19.42;;
62941;SDS011;49042;47.318;19.874;2022-11-02T16:27:47;39.20;;;19.77;;
62941;SDS011;49042;47.318;19.874;2022-11-02T16:31:06;39.78;;;21.70;;
62941;SDS011;49042;47.318;19.874;2022-11-02T16:34:24;45.00;;;26.60;;
62941;SDS011;49042;47.318;19.874;2022-11-02T16:37:29;44.63;;;24.12;;
62941;SDS011;49042;47.318;19.874;2022-11-02T16:40:33;39.03;;;22.50;;
62941;SDS011;49042;47.318;19.874;2022-11-02T16:43:35;38.20;;;22.75;;
62941;SDS011;49042;47.318;19.874;2022-11-02T16:46:49;42.00;;;22.42;;
62941;SDS011;49042;47.318;19.874;2022-11-02T16:49:56;38.55;;;23.50;;
62941;SDS011;49042;47.318;19.874;2022-11-02T16:52:59;38.83;;;23.23;;
62941;SDS011;49042;47.318;19.874;2022-11-02T16:56:13;39.80;;;22.25;;
62941;SDS011;49042;47.318;19.874;2022-11-02T16:59:15;43.15;;;23.60;;
62941;SDS011;49042;47.318;19.874;2022-11-02T17:02:18;33.92;;;21.50;;
62941;SDS011;49042;47.318;19.874;2022-11-02T17:05:29;41.75;;;25.70;;
62941;SDS011;49042;47.318;19.874;2022-11-02T17:08:33;45.55;;;27.55;;
62941;SDS011;49042;47.318;19.874;2022-11-02T17:11:38;47.35;;;27.08;;
62941;SDS011;49042;47.318;19.874;2022-11-02T17:14:43;42.13;;;25.27;;
62941;SDS011;49042;47.318;19.874;2022-11-02T17:17:48;42.00;;;21.62;;
62941;SDS011;49042;47.318;19.874;2022-11-02T17:24:25;34.03;;;21.30;;
62941;SDS011;49042;47.318;19.874;2022-11-02T17:27:32;40.85;;;22.37;;
62941;SDS011;49042;47.318;19.874;2022-11-02T17:30:44;39.72;;;21.85;;
62941;SDS011;49042;47.318;19.874;2022-11-02T17:33:46;43.20;;;24.77;;
62941;SDS011;49042;47.318;19.874;2022-11-02T17:36:49;41.35;;;24.20;;
62941;SDS011;49042;47.318;19.874;2022-11-02T17:39:52;48.72;;;27.13;;
62941;SDS011;49042;47.318;19.874;2022-11-02T17:42:55;39.75;;;23.77;;
62941;SDS011;49042;47.318;19.874;2022-11-02T17:46:01;43.13;;;25.05;;
62941;SDS011;49042;47.318;19.874;2022-11-02T17:49:03;43.05;;;25.75;;
62941;SDS011;49042;47.318;19.874;2022-11-02T17:52:05;46.35;;;26.05;;
62941;SDS011;49042;47.318;19.874;2022-11-02T17:55:11;47.47;;;26.77;;
62941;SDS011;49042;47.318;19.874;2022-11-02T17:58:17;44.65;;;25.85;;
62941;SDS011;49042;47.318;19.874;2022-11-02T18:01:20;47.00;;;25.00;;
62941;SDS011;49042;47.318;19.874;2022-11-02T18:04:22;40.80;;;25.62;;
62941;SDS011;49042;47.318;19.874;2022-11-02T18:07:24;48.95;;;25.50;;
62941;SDS011;49042;47.318;19.874;2022-11-02T18:10:29;37.50;;;23.85;;
62941;SDS011;49042;47.318;19.874;2022-11-02T18:13:32;40.58;;;23.12;;
62941;SDS011;49042;47.318;19.874;2022-11-02T18:16:35;39.42;;;23.73;;
62941;SDS011;49042;47.318;19.874;2022-11-02T18:19:37;33.83;;;22.05;;
62941;SDS011;49042;47.318;19.874;2022-11-02T18:22:39;38.33;;;22.80;;
62941;SDS011;49042;47.318;19.874;2022-11-02T18:25:41;45.28;;;24.35;;
62941;SDS011;49042;47.318;19.874;2022-11-02T18:28:44;42.30;;;24.05;;
62941;SDS011;49042;47.318;19.874;2022-11-02T18:31:47;43.50;;;24.20;;
62941;SDS011;49042;47.318;19.874;2022-11-02T18:34:51;46.22;;;23.75;;
62941;SDS011;49042;47.318;19.874;2022-11-02T18:37:53;50.78;;;25.67;;
62941;SDS011;49042;47.318;19.874;2022-11-02T18:40:56;48.05;;;25.60;;
62941;SDS011;49042;47.318;19.874;2022-11-02T18:44:27;40.90;;;23.45;;
62941;SDS011;49042;47.318;19.874;2022-11-02T18:47:33;39.13;;;24.10;;
62941;SDS011;49042;47.318;19.874;2022-11-02T18:50:36;36.40;;;23.50;;
62941;SDS011;49042;47.318;19.874;2022-11-02T18:53:38;46.88;;;23.73;;
62941;SDS011;49042;47.318;19.874;2022-11-02T18:56:40;45.50;;;24.90;;
62941;SDS011;49042;47.318;19.874;2022-11-02T18:59:42;39.83;;;24.85;;
62941;SDS011;49042;47.318;19.874;2022-11-02T19:02:44;47.70;;;25.60;;
62941;SDS011;49042;47.318;19.874;2022-11-02T19:05:47;41.80;;;25.80;;
62941;SDS011;49042;47.318;19.874;2022-11-02T19:09:09;46.80;;;28.35;;
62941;SDS011;49042;47.318;19.874;2022-11-02T19:12:22;43.38;;;26.87;;
62941;SDS011;49042;47.318;19.874;2022-11-02T19:15:25;46.30;;;27.17;;
62941;SDS011;49042;47.318;19.874;2022-11-02T19:18:27;51.65;;;29.60;;
62941;SDS011;49042;47.318;19.874;2022-11-02T19:21:29;43.38;;;26.45;;
62941;SDS011;49042;47.318;19.874;2022-11-02T19:24:33;45.10;;;25.50;;
62941;SDS011;49042;47.318;19.874;2022-11-02T19:27:35;43.63;;;24.60;;
62941;SDS011;49042;47.318;19.874;2022-11-02T19:30:37;44.80;;;25.15;;
62941;SDS011;49042;47.318;19.874;2022-11-02T19:33:39;37.58;;;23.75;;
62941;SDS011;49042;47.318;19.874;2022-11-02T19:36:42;41.28;;;22.90;;
62941;SDS011;49042;47.318;19.874;2022-11-02T19:39:44;41.03;;;22.65;;
62941;SDS011;49042;47.318;19.874;2022-11-02T19:42:47;39.30;;;22.37;;
62941;SDS011;49042;47.318;19.874;2022-11-02T19:45:49;41.45;;;23.25;;
62941;SDS011;49042;47.318;19.874;2022-11-02T19:48:51;38.72;;;22.10;;
62941;SDS011;49042;47.318;19.874;2022-11-02T19:51:53;39.42;;;22.55;;
62941;SDS011;49042;47.318;19.874;2022-11-02T19:54:57;38.15;;;22.85;;